createdAt,value
2022-11-18T00:02:26.317Z,0.70
2022-11-18T00:06:12.435Z,0.52
2022-11-18T00:09:54.375Z,0.60
2022-11-18T00:13:56.901Z,0.60
2022-11-18T00:17:38.798Z,0.50
2022-11-18T00:21:20.722Z,0.80
2022-11-18T00:25:02.691Z,0.50
2022-11-18T00:28:44.617Z,0.57
2022-11-18T00:32:26.563Z,0.90
2022-11-18T00:36:11.824Z,0.80
2022-11-18T00:39:53.735Z,0.80
2022-11-18T00:43:36.498Z,0.80
2022-11-18T00:47:18.593Z,0.75
2022-11-18T00:51:15.560Z,0.82
2022-11-18T00:54:57.547Z,0.80
2022-11-18T00:58:39.475Z,0.80
2022-11-18T01:02:21.427Z,0.60
2022-11-18T01:06:04.359Z,0.75
2022-11-18T01:09:46.304Z,0.50
2022-11-18T01:13:29.243Z,0.65
2022-11-18T01:17:11.262Z,0.70
2022-11-18T01:20:53.477Z,0.50
2022-11-18T01:24:35.447Z,0.65
2022-11-18T01:28:23.635Z,0.60
2022-11-18T01:32:24.125Z,0.50
2022-11-18T01:36:20.128Z,0.50
2022-11-18T01:40:02.436Z,0.90
2022-11-18T01:44:06.112Z,0.55
2022-11-18T01:48:10.903Z,0.63
2022-11-18T01:51:57.888Z,0.57
2022-11-18T01:55:43.795Z,0.70
2022-11-18T01:59:30.175Z,0.57
2022-11-18T02:03:12.538Z,0.50
2022-11-18T02:06:55.561Z,0.60
2022-11-18T02:10:38.033Z,0.50
2022-11-18T02:14:31.575Z,0.70
2022-11-18T02:18:29.571Z,0.63
2022-11-18T02:22:44.578Z,0.77
2022-11-18T02:27:04.528Z,0.70
2022-11-18T02:31:20.521Z,0.60
2022-11-18T02:35:22.942Z,0.70
2022-11-18T02:39:17.143Z,0.60
2022-11-18T02:43:05.874Z,0.65
2022-11-18T02:46:52.266Z,0.60
2022-11-18T02:50:36.176Z,0.85
2022-11-18T02:54:19.936Z,0.60
2022-11-18T02:58:03.931Z,0.70
2022-11-18T03:01:45.966Z,0.65
2022-11-18T03:05:41.697Z,0.90
2022-11-18T03:09:26.332Z,0.60
2022-11-18T03:13:27.777Z,0.43
2022-11-18T03:17:18.154Z,0.70
2022-11-18T03:21:17.724Z,0.57
2022-11-18T03:25:24.031Z,0.40
2022-11-18T03:29:13.350Z,0.60
2022-11-18T03:33:09.742Z,0.60
2022-11-18T03:37:00.497Z,0.67
2022-11-18T03:40:47.725Z,0.40
2022-11-18T03:48:17.596Z,0.40
2022-11-18T03:52:07.856Z,0.67
2022-11-18T03:55:56.063Z,0.60
2022-11-18T03:59:45.880Z,0.32
2022-11-18T04:03:28.039Z,0.43
2022-11-18T04:07:30.117Z,0.50
2022-11-18T04:11:37.991Z,0.50
2022-11-18T04:15:20.559Z,0.50
2022-11-18T04:19:06.197Z,0.40
2022-11-18T04:22:48.837Z,0.70
2022-11-18T04:26:33.569Z,0.65
2022-11-18T04:30:15.519Z,0.80
2022-11-18T04:33:57.568Z,0.73
2022-11-18T04:37:39.505Z,0.75
2022-11-18T04:41:41.333Z,0.50
2022-11-18T04:45:23.293Z,0.57
2022-11-18T04:49:05.248Z,0.77
2022-11-18T04:52:47.207Z,0.95
2022-11-18T04:56:29.256Z,0.80
2022-11-18T05:00:11.891Z,0.70
2022-11-18T05:03:54.213Z,0.73
2022-11-18T05:07:36.287Z,0.60
2022-11-18T05:11:36.977Z,0.80
2022-11-18T05:15:24.650Z,0.77
2022-11-18T05:19:07.158Z,0.80
2022-11-18T05:22:49.104Z,1.20
2022-11-18T05:26:31.106Z,0.93
2022-11-18T05:30:13.746Z,0.98
2022-11-18T05:33:55.928Z,0.82
2022-11-18T05:37:37.869Z,0.65
2022-11-18T05:41:38.975Z,0.90
2022-11-18T05:45:20.943Z,1.00
2022-11-18T05:49:02.971Z,1.15
2022-11-18T05:52:44.931Z,1.13
2022-11-18T05:56:35.791Z,1.58
2022-11-18T06:00:18.329Z,1.00
2022-11-18T06:04:01.853Z,0.90
2022-11-18T06:07:45.428Z,0.80
2022-11-18T06:11:28.075Z,0.93
2022-11-18T06:15:21.373Z,0.88
2022-11-18T06:19:03.571Z,1.63
2022-11-18T06:22:46.796Z,1.02
2022-11-18T06:26:29.974Z,0.75
2022-11-18T06:30:12.581Z,0.90
2022-11-18T06:33:54.514Z,1.00
2022-11-18T06:37:36.493Z,0.88
2022-11-18T06:41:18.429Z,0.60
2022-11-18T06:45:00.531Z,1.20
2022-11-18T06:48:42.557Z,1.38
2022-11-18T06:52:24.825Z,1.10
2022-11-18T06:56:12.735Z,1.17
2022-11-18T06:59:59.043Z,0.82
2022-11-18T07:03:45.595Z,1.13
2022-11-18T07:07:27.586Z,1.05
2022-11-18T07:11:13.303Z,0.73
2022-11-18T07:14:55.313Z,0.90
2022-11-18T07:18:39.478Z,1.05
2022-11-18T07:22:21.441Z,0.90
2022-11-18T07:26:03.699Z,0.95
2022-11-18T07:29:45.685Z,1.20
2022-11-18T07:33:27.593Z,0.93
2022-11-18T07:37:09.518Z,0.82
2022-11-18T07:40:51.502Z,0.73
2022-11-18T07:44:33.415Z,1.00
2022-11-18T07:48:15.287Z,0.88
2022-11-18T07:51:57.260Z,0.77
2022-11-18T07:55:39.155Z,0.80
2022-11-18T07:59:21.323Z,0.80
2022-11-18T08:03:03.499Z,0.80
2022-11-18T08:06:45.707Z,0.70
2022-11-18T08:10:27.763Z,0.73
2022-11-18T08:14:09.846Z,1.08
2022-11-18T08:17:51.902Z,0.60
2022-11-18T08:21:33.830Z,0.80
2022-11-18T08:25:15.833Z,1.00
2022-11-18T08:28:57.852Z,0.85
2022-11-18T08:32:39.899Z,0.75
2022-11-18T08:36:24.916Z,0.50
2022-11-18T08:40:07.344Z,0.80
2022-11-18T08:43:49.370Z,0.60
2022-11-18T08:47:31.344Z,0.47
2022-11-18T08:51:14.194Z,0.50
2022-11-18T08:54:56.137Z,0.40
2022-11-18T08:58:38.091Z,0.50
2022-11-18T09:02:22.758Z,0.60
2022-11-18T09:06:14.226Z,0.55
2022-11-18T09:09:56.204Z,0.50
2022-11-18T09:14:38.966Z,0.80
2022-11-18T09:17:40.322Z,0.85
2022-11-18T09:21:22.617Z,1.00
2022-11-18T09:25:04.855Z,1.00
2022-11-18T09:28:47.501Z,0.57
2022-11-18T09:32:29.385Z,0.70
2022-11-18T09:36:20.434Z,0.60
2022-11-18T09:40:02.362Z,0.70
2022-11-18T09:44:02.946Z,0.73
2022-11-18T09:47:44.959Z,1.23
2022-11-18T09:51:28.928Z,0.60
2022-11-18T09:55:15.967Z,0.63
2022-11-18T09:58:58.088Z,0.98
2022-11-18T10:02:45.744Z,0.60
2022-11-18T10:06:31.976Z,0.85
2022-11-18T10:10:21.272Z,0.65
2022-11-18T10:14:47.731Z,0.80
2022-11-18T10:19:01.151Z,0.70
2022-11-18T10:22:55.240Z,0.77
2022-11-18T10:26:41.929Z,0.77
2022-11-18T10:30:26.646Z,0.52
2022-11-18T10:34:13.256Z,0.60
2022-11-18T10:38:18.069Z,0.52
2022-11-18T10:42:22.118Z,0.60
2022-11-18T10:46:20.205Z,1.00
2022-11-18T10:50:23.143Z,0.60
2022-11-18T10:54:08.050Z,0.60
2022-11-18T10:57:57.047Z,0.63
2022-11-18T11:01:39.742Z,0.50
2022-11-18T11:05:26.906Z,0.50
2022-11-18T11:09:23.536Z,0.57
2022-11-18T11:13:15.356Z,0.50
2022-11-18T11:16:59.094Z,0.70
2022-11-18T11:20:41.234Z,0.63
2022-11-18T11:24:26.517Z,0.68
2022-11-18T11:28:21.776Z,0.70
2022-11-18T11:32:22.464Z,0.70
2022-11-18T11:36:23.528Z,0.60
2022-11-18T11:40:26.234Z,0.65
2022-11-18T11:44:31.641Z,0.50
2022-11-18T11:48:41.624Z,0.47
2022-11-18T11:52:45.290Z,0.40
2022-11-18T11:57:24.479Z,0.40
2022-11-18T12:01:47.695Z,0.52
2022-11-18T12:05:39.316Z,0.50
2022-11-18T12:09:33.520Z,0.70
2022-11-18T12:13:34.137Z,0.70
2022-11-18T12:17:25.217Z,0.80
2022-11-18T12:21:07.214Z,0.60
2022-11-18T12:24:49.134Z,0.70
2022-11-18T12:28:41.462Z,0.52
2022-11-18T12:32:42.738Z,0.68
2022-11-18T12:36:33.210Z,0.80
2022-11-18T12:40:36.101Z,0.82
2022-11-18T12:44:24.403Z,0.68
2022-11-18T12:48:27.801Z,0.90
2022-11-18T12:52:30.272Z,0.80
2022-11-18T12:56:18.400Z,0.95
2022-11-18T13:00:16.344Z,0.60
2022-11-18T13:04:16.894Z,0.80
2022-11-18T13:08:15.107Z,0.88
2022-11-18T13:12:12.835Z,0.70
2022-11-18T13:16:14.693Z,0.82
2022-11-18T13:19:59.471Z,0.95
2022-11-18T13:23:59.300Z,0.70
2022-11-18T13:27:49.826Z,0.82
2022-11-18T13:31:50.467Z,1.00
2022-11-18T13:35:32.395Z,0.90
2022-11-18T13:39:30.342Z,0.85
2022-11-18T13:43:12.257Z,0.93
2022-11-18T13:47:20.426Z,1.08
2022-11-18T13:51:03.219Z,0.80
2022-11-18T13:54:46.121Z,1.30
2022-11-18T13:59:02.809Z,0.65
2022-11-18T14:02:46.254Z,0.95
2022-11-18T14:06:35.240Z,0.70
2022-11-18T14:10:17.280Z,0.93
2022-11-18T14:13:59.786Z,1.27
2022-11-18T14:17:51.786Z,1.13
2022-11-18T14:21:36.165Z,0.95
2022-11-18T14:25:36.161Z,0.90
2022-11-18T14:29:23.413Z,0.90
2022-11-18T14:33:24.225Z,0.80
2022-11-18T14:37:14.987Z,1.05
2022-11-18T14:40:59.988Z,1.20
2022-11-18T14:44:41.920Z,1.10
2022-11-18T14:48:31.121Z,0.90
2022-11-18T14:52:14.328Z,1.42
2022-11-18T14:55:58.719Z,0.70
2022-11-18T14:59:41.161Z,0.90
2022-11-18T15:03:23.179Z,1.00
2022-11-18T15:07:06.754Z,1.13
2022-11-18T15:10:48.763Z,0.98
2022-11-18T15:14:30.665Z,1.27
2022-11-18T15:18:12.630Z,1.60
2022-11-18T15:21:54.523Z,1.17
2022-11-18T15:25:36.665Z,1.25
2022-11-18T15:29:21.115Z,1.38
2022-11-18T15:33:03.022Z,2.15
2022-11-18T15:36:45.488Z,2.13
2022-11-18T15:40:27.387Z,2.50
2022-11-18T15:44:10.964Z,1.77
2022-11-18T15:47:52.976Z,1.85
2022-11-18T15:51:34.888Z,1.15
2022-11-18T15:55:17.268Z,0.93
2022-11-18T15:59:00.572Z,1.00
2022-11-18T16:02:45.175Z,1.00
2022-11-18T16:06:27.611Z,1.00
2022-11-18T16:10:28.325Z,1.23
2022-11-18T16:14:12.444Z,1.30
2022-11-18T16:17:54.434Z,0.68
2022-11-18T16:21:38.988Z,1.00
2022-11-18T16:25:21.540Z,1.38
2022-11-18T16:29:04.682Z,1.83
2022-11-18T16:32:46.603Z,2.88
2022-11-18T16:36:28.883Z,2.20
2022-11-18T16:40:11.292Z,1.25
2022-11-18T16:43:53.455Z,2.05
2022-11-18T16:47:35.643Z,1.60
2022-11-18T16:51:21.308Z,1.27
2022-11-18T16:55:03.572Z,1.20
2022-11-18T16:58:45.531Z,1.20
2022-11-18T17:02:27.538Z,1.45
2022-11-18T17:06:09.591Z,1.63
2022-11-18T17:09:51.543Z,1.30
2022-11-18T17:13:33.550Z,1.30
2022-11-18T17:17:15.441Z,1.30
2022-11-18T17:21:01.441Z,1.92
2022-11-18T17:24:43.352Z,1.30
2022-11-18T17:28:25.218Z,1.73
2022-11-18T17:32:07.133Z,1.75
2022-11-18T17:36:07.161Z,1.60
2022-11-18T17:39:49.077Z,1.63
2022-11-18T17:43:31.145Z,1.23
2022-11-18T17:47:13.093Z,1.38
2022-11-18T17:50:54.995Z,1.75
2022-11-18T17:54:36.929Z,1.48
2022-11-18T17:58:19.900Z,1.73
2022-11-18T18:02:01.878Z,1.75
2022-11-18T18:05:43.797Z,1.75
2022-11-18T18:09:30.457Z,1.67
2022-11-18T18:13:34.020Z,1.52
2022-11-18T18:17:17.110Z,2.45
2022-11-18T18:21:01.254Z,3.10
2022-11-18T18:24:43.562Z,2.60
2022-11-18T18:28:25.542Z,1.98
2022-11-18T18:32:07.443Z,1.95
2022-11-18T18:35:49.338Z,2.15
2022-11-18T18:39:31.388Z,2.30
2022-11-18T18:43:13.377Z,2.22
2022-11-18T18:46:55.312Z,3.38
2022-11-18T18:50:37.206Z,2.83
2022-11-18T18:54:20.670Z,3.40
2022-11-18T18:58:02.794Z,3.38
2022-11-18T19:01:44.780Z,3.10
2022-11-18T19:05:53.586Z,2.30
2022-11-18T19:09:30.530Z,2.22
2022-11-18T19:13:12.538Z,3.45
2022-11-18T19:16:55.809Z,2.50
2022-11-18T19:20:37.942Z,2.50
2022-11-18T19:24:47.686Z,2.72
2022-11-18T19:28:22.142Z,2.78
2022-11-18T19:32:04.308Z,2.70
2022-11-18T19:35:46.213Z,2.85
2022-11-18T19:39:28.189Z,3.28
2022-11-18T19:43:10.086Z,4.15
2022-11-18T19:46:52.007Z,5.50
2022-11-18T19:50:33.902Z,3.80
2022-11-18T19:54:16.003Z,2.42
2022-11-18T19:57:58.444Z,1.80
2022-11-18T20:01:41.501Z,2.08
2022-11-18T20:05:47.385Z,2.17
2022-11-18T20:09:29.656Z,3.42
2022-11-18T20:13:11.978Z,3.70
2022-11-18T20:16:54.042Z,3.00
2022-11-18T20:20:36.532Z,2.75
2022-11-18T20:24:19.422Z,2.42
2022-11-18T20:28:01.302Z,2.00
2022-11-18T20:31:43.692Z,2.17
2022-11-18T20:35:26.443Z,2.97
2022-11-18T20:39:13.761Z,3.97
2022-11-18T20:43:13.488Z,3.05
2022-11-18T20:46:55.365Z,3.90
2022-11-18T20:50:38.382Z,2.80
2022-11-18T20:54:21.908Z,3.20
2022-11-18T20:58:04.143Z,3.10
2022-11-18T21:01:46.101Z,4.03
2022-11-18T21:05:32.057Z,3.67
2022-11-18T21:09:15.121Z,3.50
2022-11-18T21:13:15.308Z,4.57
2022-11-18T21:17:01.267Z,3.92
2022-11-18T21:21:01.896Z,2.60
2022-11-18T21:24:46.120Z,2.60
2022-11-18T21:28:28.757Z,2.80
2022-11-18T21:32:10.655Z,2.10
2022-11-18T21:35:52.676Z,2.33
2022-11-18T21:39:34.765Z,1.70
2022-11-18T21:43:16.733Z,1.70
2022-11-18T21:46:58.671Z,1.45
2022-11-18T21:50:40.557Z,2.15
2022-11-18T21:54:22.435Z,1.40
2022-11-18T21:58:04.380Z,1.55
2022-11-18T22:01:46.365Z,1.20
2022-11-18T22:05:28.267Z,1.35
2022-11-18T22:09:10.157Z,1.17
2022-11-18T22:12:52.392Z,1.67
2022-11-18T22:16:34.265Z,1.38
2022-11-18T22:20:16.197Z,2.08
2022-11-18T22:24:02.332Z,1.20
2022-11-18T22:27:44.230Z,1.67
2022-11-18T22:31:27.856Z,2.05
2022-11-18T22:35:10.021Z,1.85
2022-11-18T22:38:53.142Z,1.70
2022-11-18T22:42:50.645Z,1.70
2022-11-18T22:46:32.558Z,2.17
2022-11-18T22:50:15.605Z,2.10
2022-11-18T22:54:22.758Z,2.00
2022-11-18T22:58:05.221Z,2.13
2022-11-18T23:01:47.421Z,2.28
2022-11-18T23:05:29.280Z,2.35
2022-11-18T23:09:11.273Z,2.58
2022-11-18T23:13:11.995Z,2.20
2022-11-18T23:16:54.147Z,2.25
2022-11-18T23:20:36.082Z,1.85
2022-11-18T23:24:19.354Z,1.58
2022-11-18T23:28:01.223Z,1.65
2022-11-18T23:31:44.773Z,1.50
2022-11-18T23:35:26.861Z,1.08
2022-11-18T23:39:09.504Z,1.10
2022-11-18T23:42:51.364Z,1.58
2022-11-18T23:46:34.016Z,1.20
2022-11-18T23:50:16.021Z,1.40
2022-11-18T23:53:58.338Z,1.70
2022-11-18T23:57:40.206Z,1.77
